Time;durP1;ratioP1;P1;durP2;ratioP2;P2;SDS_P1;SDS_P2;PMS_P1;PMS_P2;Temp;Humidity;BMP_temperature;BMP_pressure;BME280_temperature;BME280_humidity;BME280_pressure;Samples;Min_cycle;Max_cycle;Signal;HPM_P1;HPM_P2
2021/12/15 00:01:25;;;;;;;29.53;19.33;;;7.80;99.90;;;;;;4941626;29;20453;-75
2021/12/15 00:03:51;;;;;;;27.80;18.00;;;7.80;99.90;;;;;;4938455;28;20193;-74
2021/12/15 00:06:18;;;;;;;25.13;17.07;;;7.80;99.90;;;;;;4948934;29;20945;-75
2021/12/15 00:08:48;;;;;;;31.10;20.20;;;7.90;99.90;;;;;;4941572;29;20185;-74
2021/12/15 00:11:15;;;;;;;35.10;20.53;;;7.90;99.90;;;;;;4938901;29;20471;-75
2021/12/15 00:13:42;;;;;;;27.83;20.67;;;7.80;99.90;;;;;;4939775;29;20465;-75
2021/12/15 00:16:09;;;;;;;34.87;22.83;;;7.80;99.90;;;;;;4936295;29;20452;-75
2021/12/15 00:18:41;;;;;;;32.40;21.27;;;7.90;99.90;;;;;;4937198;28;20484;-75
2021/12/15 00:21:08;;;;;;;31.47;20.47;;;7.80;99.90;;;;;;4938372;29;20807;-75
2021/12/15 00:23:34;;;;;;;27.37;20.80;;;7.70;99.90;;;;;;4938106;29;20472;-74
2021/12/15 00:25:59;;;;;;;30.67;21.07;;;7.80;99.90;;;;;;4945003;29;20460;-75
2021/12/15 00:28:25;;;;;;;35.60;21.00;;;7.70;99.90;;;;;;4935869;29;20177;-75
2021/12/15 00:30:50;;;;;;;29.97;18.93;;;7.70;99.90;;;;;;4940683;29;20239;-74
2021/12/15 00:33:16;;;;;;;31.73;20.07;;;7.70;99.90;;;;;;4947342;29;20205;-75
2021/12/15 00:35:42;;;;;;;31.77;20.57;;;7.70;99.90;;;;;;4940584;29;20269;-76
2021/12/15 00:38:07;;;;;;;29.17;19.60;;;7.80;99.90;;;;;;4940827;29;20658;-75
2021/12/15 00:40:33;;;;;;;28.93;20.20;;;7.80;99.90;;;;;;4952768;28;20236;-75
2021/12/15 00:42:59;;;;;;;23.87;17.40;;;7.80;99.90;;;;;;4939160;29;20607;-75
2021/12/15 00:45:26;;;;;;;30.67;18.90;;;7.80;99.90;;;;;;4945951;29;20236;-75
2021/12/15 00:47:52;;;;;;;37.50;22.57;;;7.70;99.90;;;;;;4947969;29;20858;-75
2021/12/15 00:50:20;;;;;;;32.60;22.30;;;7.80;99.90;;;;;;4949064;29;20453;-75
2021/12/15 00:52:46;;;;;;;37.87;21.50;;;7.80;99.90;;;;;;4951700;28;20596;-75
2021/12/15 00:55:15;;;;;;;36.67;23.10;;;7.70;99.90;;;;;;4935664;29;20475;-74
2021/12/15 00:57:41;;;;;;;30.80;20.13;;;7.70;99.90;;;;;;4947036;29;20437;-75
2021/12/15 01:00:11;;;;;;;33.90;20.67;;;7.70;99.90;;;;;;4937855;29;20461;-75
2021/12/15 01:02:37;;;;;;;31.00;20.40;;;7.60;99.90;;;;;;4942083;28;20603;-75
2021/12/15 01:05:04;;;;;;;26.67;19.47;;;7.60;99.90;;;;;;4952173;29;20527;-76
2021/12/15 01:07:30;;;;;;;33.53;22.73;;;7.60;99.90;;;;;;4937610;28;20181;-75
2021/12/15 01:09:57;;;;;;;31.70;20.63;;;7.60;99.90;;;;;;4935960;29;20473;-75
2021/12/15 01:20:41;;;;;;;37.73;23.27;;;7.70;99.90;;;;;;4950999;29;20455;-75
2021/12/15 01:23:11;;;;;;;36.43;21.13;;;7.70;99.90;;;;;;4945289;28;20935;-75
2021/12/15 01:25:58;;;;;;;31.90;22.37;;;7.70;99.90;;;;;;4940431;29;20437;-75
2021/12/15 01:28:25;;;;;;;30.67;21.63;;;7.60;99.90;;;;;;4943279;29;20440;-74
2021/12/15 01:30:53;;;;;;;32.30;20.70;;;7.60;99.90;;;;;;4945829;28;20500;-75
2021/12/15 01:33:18;;;;;;;29.77;21.27;;;7.60;99.90;;;;;;4943399;28;20471;-75
2021/12/15 01:35:47;;;;;;;32.37;21.23;;;7.60;99.90;;;;;;4938419;29;20923;-75
2021/12/15 01:38:15;;;;;;;32.20;22.10;;;7.60;99.90;;;;;;4944700;29;20209;-75
2021/12/15 01:40:44;;;;;;;35.47;21.90;;;7.60;99.90;;;;;;4951520;28;21040;-75
2021/12/15 01:43:24;;;;;;;34.73;20.87;;;7.60;99.90;;;;;;4940880;29;20444;-75
2021/12/15 01:48:39;;;;;;;34.00;21.57;;;7.40;99.90;;;;;;4948114;29;20491;-75
2021/12/15 01:51:08;;;;;;;35.67;22.13;;;7.50;99.90;;;;;;4955913;28;20584;-75
2021/12/15 01:53:34;;;;;;;30.67;21.20;;;7.50;99.90;;;;;;4941298;29;20460;-75
2021/12/15 01:56:00;;;;;;;31.13;20.97;;;7.60;99.90;;;;;;4956307;28;20439;-75
2021/12/15 01:58:26;;;;;;;32.47;21.27;;;7.40;99.90;;;;;;4954437;28;20468;-75
2021/12/15 02:00:59;;;;;;;32.47;21.60;;;7.40;99.90;;;;;;4943912;29;20487;-75
2021/12/15 02:03:24;;;;;;;34.30;21.30;;;7.50;99.90;;;;;;4955525;28;20205;-75
2021/12/15 02:05:50;;;;;;;35.03;21.70;;;7.40;99.90;;;;;;4955693;28;20475;-75
2021/12/15 02:08:17;;;;;;;32.63;20.70;;;7.40;99.90;;;;;;4954835;29;20639;-75
2021/12/15 02:10:44;;;;;;;33.20;20.93;;;7.50;99.90;;;;;;4950244;28;20483;-75
2021/12/15 02:13:13;;;;;;;32.60;20.60;;;7.50;99.90;;;;;;4953232;28;20472;-75
2021/12/15 02:15:42;;;;;;;35.60;21.87;;;7.60;99.90;;;;;;4955464;28;20564;-75
2021/12/15 02:18:14;;;;;;;27.40;20.00;;;7.50;99.90;;;;;;4954306;28;20439;-75
2021/12/15 02:20:50;;;;;;;30.93;19.37;;;7.60;99.90;;;;;;4954044;28;20459;-75
2021/12/15 02:23:20;;;;;;;29.87;19.00;;;7.60;99.90;;;;;;4950659;28;20440;-75
2021/12/15 02:25:46;;;;;;;29.80;19.47;;;7.60;99.90;;;;;;4936976;29;20572;-75
2021/12/15 02:28:12;;;;;;;31.50;20.27;;;7.50;99.90;;;;;;4941017;29;20524;-75
2021/12/15 02:30:50;;;;;;;30.50;19.07;;;7.50;99.90;;;;;;4945268;29;20471;-75
2021/12/15 02:38:36;;;;;;;30.50;19.50;;;7.60;99.90;;;;;;4938530;29;20437;-75
2021/12/15 02:41:12;;;;;;;26.13;17.57;;;7.60;99.90;;;;;;4951448;29;20452;-75
2021/12/15 02:43:38;;;;;;;29.53;19.50;;;7.60;99.90;;;;;;4937268;29;20921;-75
2021/12/15 02:46:05;;;;;;;24.90;18.10;;;7.70;99.90;;;;;;4936532;29;20440;-75
2021/12/15 02:48:32;;;;;;;25.67;16.83;;;7.60;99.90;;;;;;4952925;29;20438;-75
2021/12/15 02:50:59;;;;;;;24.00;18.10;;;7.60;99.90;;;;;;4955056;28;20831;-76
2021/12/15 02:53:24;;;;;;;25.87;17.17;;;7.60;99.90;;;;;;4940965;28;20909;-75
2021/12/15 02:55:51;;;;;;;28.30;17.50;;;7.60;99.90;;;;;;4945091;29;20464;-75
2021/12/15 02:58:18;;;;;;;26.03;18.10;;;7.70;99.90;;;;;;4941407;28;20173;-75
2021/12/15 03:00:57;;;;;;;23.43;17.10;;;7.60;99.90;;;;;;4948843;29;20448;-75
2021/12/15 03:06:06;;;;;;;26.40;17.00;;;7.60;99.90;;;;;;4939873;28;20437;-75
2021/12/15 03:16:38;;;;;;;28.07;18.47;;;7.60;99.90;;;;;;4944636;29;20428;-75
2021/12/15 03:19:04;;;;;;;25.77;16.70;;;7.50;99.90;;;;;;4953211;29;20821;-75
2021/12/15 03:21:30;;;;;;;25.97;17.30;;;7.60;99.90;;;;;;4953289;29;20562;-75
2021/12/15 03:24:00;;;;;;;25.80;18.30;;;7.60;99.90;;;;;;4944246;29;20665;-75
2021/12/15 03:26:35;;;;;;;25.80;17.90;;;7.60;99.90;;;;;;4937008;28;20174;-75
2021/12/15 03:34:48;;;;;;;27.73;17.70;;;7.60;99.90;;;;;;4941441;29;20799;-75
2021/12/15 03:37:23;;;;;;;24.80;16.20;;;7.50;99.90;;;;;;4941499;29;20846;-75
2021/12/15 03:39:53;;;;;;;25.70;18.43;;;7.50;99.90;;;;;;4947294;29;20580;-76
2021/12/15 03:42:25;;;;;;;26.37;18.57;;;7.50;99.90;;;;;;4946450;29;20953;-75
2021/12/15 03:44:51;;;;;;;25.67;17.90;;;7.50;99.90;;;;;;4946525;28;20433;-75
2021/12/15 03:47:29;;;;;;;23.40;16.23;;;7.50;99.90;;;;;;4941333;28;20813;-75
2021/12/15 03:49:56;;;;;;;25.17;17.00;;;7.50;99.90;;;;;;4947877;29;20543;-75
2021/12/15 03:52:23;;;;;;;24.83;18.90;;;7.60;99.90;;;;;;4944260;29;20460;-75
2021/12/15 03:54:49;;;;;;;22.93;16.40;;;7.60;99.90;;;;;;4951985;28;20435;-75
2021/12/15 03:57:15;;;;;;;20.50;15.70;;;7.60;99.90;;;;;;4946890;29;20428;-75
2021/12/15 03:59:43;;;;;;;23.27;15.67;;;7.50;99.90;;;;;;4937987;28;20401;-75
2021/12/15 04:02:14;;;;;;;17.60;12.63;;;7.60;99.90;;;;;;4941862;29;20451;-75
2021/12/15 04:04:42;;;;;;;7.50;6.03;;;7.50;99.90;;;;;;4948414;28;20540;-75
2021/12/15 04:07:09;;;;;;;7.83;6.50;;;7.00;99.90;;;;;;4935414;29;20525;-75
2021/12/15 04:09:34;;;;;;;9.80;8.03;;;6.90;99.90;;;;;;4953735;28;20468;-75
2021/12/15 04:12:00;;;;;;;9.60;8.10;;;6.80;99.90;;;;;;4954064;28;20873;-75
2021/12/15 04:14:33;;;;;;;14.70;11.80;;;6.80;99.90;;;;;;4942414;28;20640;-75
2021/12/15 04:17:02;;;;;;;17.07;12.10;;;6.80;99.90;;;;;;4951548;28;20473;-75
2021/12/15 04:19:29;;;;;;;17.77;12.03;;;6.80;99.90;;;;;;4948616;29;20504;-75
2021/12/15 04:21:55;;;;;;;16.67;12.47;;;6.70;99.90;;;;;;4949259;28;20444;-75
2021/12/15 04:24:21;;;;;;;14.77;11.83;;;6.80;99.90;;;;;;4952234;29;20519;-74
2021/12/15 04:26:48;;;;;;;17.70;12.20;;;6.90;99.90;;;;;;4949800;28;20632;-75
2021/12/15 04:29:14;;;;;;;14.90;11.60;;;6.90;99.90;;;;;;4942077;29;20432;-74
2021/12/15 04:31:52;;;;;;;11.47;9.37;;;6.90;99.90;;;;;;4944033;28;20853;-74
2021/12/15 04:34:18;;;;;;;10.90;9.00;;;6.90;99.90;;;;;;4942931;29;21024;-74
2021/12/15 04:36:46;;;;;;;8.40;7.60;;;6.90;99.90;;;;;;4943360;29;20436;-74
2021/12/15 04:39:18;;;;;;;6.00;5.40;;;7.00;99.90;;;;;;4939714;28;20192;-75
2021/12/15 04:41:48;;;;;;;6.80;6.10;;;7.00;99.90;;;;;;4948979;29;20432;-74
2021/12/15 04:44:15;;;;;;;6.70;5.97;;;7.00;99.90;;;;;;4947682;29;20471;-75
2021/12/15 04:46:46;;;;;;;10.03;8.80;;;7.10;99.90;;;;;;4945731;28;20508;-74
2021/12/15 04:49:14;;;;;;;9.83;7.90;;;7.10;99.90;;;;;;4940543;29;20472;-75
2021/12/15 04:51:40;;;;;;;12.57;10.13;;;6.90;99.90;;;;;;4934652;28;20885;-75
2021/12/15 04:54:06;;;;;;;8.53;7.63;;;6.90;99.90;;;;;;4935867;29;20429;-75
2021/12/15 04:56:31;;;;;;;8.77;7.87;;;7.00;99.90;;;;;;4935392;29;20181;-75
2021/12/15 04:58:58;;;;;;;9.53;8.00;;;7.00;99.90;;;;;;4946877;29;20802;-74
2021/12/15 05:01:25;;;;;;;11.17;9.43;;;6.90;99.90;;;;;;4943566;29;20558;-75
2021/12/15 05:03:51;;;;;;;12.50;10.60;;;7.00;99.90;;;;;;4947949;28;20802;-75
2021/12/15 05:06:17;;;;;;;10.90;9.37;;;7.00;99.90;;;;;;4951608;29;20444;-76
2021/12/15 05:08:42;;;;;;;11.10;9.20;;;7.10;99.90;;;;;;4951905;28;20193;-76
2021/12/15 05:11:11;;;;;;;11.00;9.77;;;7.10;99.90;;;;;;4944707;28;20213;-75
2021/12/15 05:13:37;;;;;;;12.47;10.67;;;7.20;99.90;;;;;;4948694;29;20220;-75
2021/12/15 05:16:04;;;;;;;14.10;10.20;;;7.10;99.90;;;;;;4953035;28;20438;-75
2021/12/15 05:18:30;;;;;;;14.47;11.27;;;7.10;99.90;;;;;;4941640;29;20953;-75
2021/12/15 05:20:58;;;;;;;17.60;12.80;;;7.20;99.90;;;;;;4948028;28;20465;-76
2021/12/15 05:23:29;;;;;;;18.20;13.37;;;7.10;99.90;;;;;;4943224;29;20586;-75
2021/12/15 05:25:56;;;;;;;14.73;11.80;;;7.10;99.90;;;;;;4941419;29;20503;-75
2021/12/15 05:28:21;;;;;;;18.47;13.67;;;7.00;99.90;;;;;;4954725;28;20439;-75
2021/12/15 05:30:47;;;;;;;14.93;12.63;;;7.10;99.90;;;;;;4949220;29;20484;-75
2021/12/15 05:33:13;;;;;;;16.30;12.90;;;7.00;99.90;;;;;;4955329;29;20217;-75
2021/12/15 05:35:39;;;;;;;14.83;10.90;;;7.10;99.90;;;;;;4938787;29;20625;-75
2021/12/15 05:38:07;;;;;;;9.47;8.53;;;6.90;99.90;;;;;;4952558;29;20435;-75
2021/12/15 05:40:34;;;;;;;10.63;9.13;;;6.90;99.90;;;;;;4954663;28;20906;-75
2021/12/15 05:43:01;;;;;;;13.00;9.63;;;6.90;99.90;;;;;;4962345;28;20444;-76
2021/12/15 05:45:29;;;;;;;10.73;9.60;;;7.00;99.90;;;;;;4953436;28;20449;-75
2021/12/15 05:47:56;;;;;;;10.70;9.23;;;7.00;99.90;;;;;;4948464;28;20475;-75
2021/12/15 05:50:23;;;;;;;11.30;9.00;;;7.10;99.90;;;;;;4955217;28;20526;-76
2021/12/15 05:52:49;;;;;;;9.80;8.90;;;7.10;99.90;;;;;;4958925;28;21085;-75
2021/12/15 05:55:16;;;;;;;10.93;9.67;;;7.10;99.90;;;;;;4954600;28;20522;-76
2021/12/15 05:57:42;;;;;;;9.73;8.83;;;7.20;99.90;;;;;;4953439;28;20178;-75
2021/12/15 06:00:12;;;;;;;10.40;9.30;;;7.30;99.90;;;;;;4969670;28;20455;-76
2021/12/15 06:02:39;;;;;;;12.23;9.60;;;7.40;99.90;;;;;;4968591;28;20435;-75
2021/12/15 06:05:06;;;;;;;12.87;10.90;;;7.40;99.90;;;;;;4955702;28;20448;-76
2021/12/15 06:07:32;;;;;;;11.10;9.50;;;7.50;99.90;;;;;;4950386;28;20437;-75
2021/12/15 06:09:58;;;;;;;15.03;10.73;;;7.50;99.90;;;;;;4937382;29;20488;-75
2021/12/15 06:12:24;;;;;;;10.27;8.00;;;7.40;99.90;;;;;;4952117;29;20464;-76
2021/12/15 06:14:51;;;;;;;9.97;9.00;;;7.30;99.90;;;;;;4943325;28;20185;-75
2021/12/15 06:17:17;;;;;;;7.87;7.07;;;7.20;99.90;;;;;;4939715;29;20425;-76
2021/12/15 06:19:42;;;;;;;10.37;9.30;;;7.10;99.90;;;;;;4950983;28;20477;-75
2021/12/15 06:22:09;;;;;;;10.10;8.70;;;7.10;99.90;;;;;;4947467;29;20276;-75
2021/12/15 06:24:36;;;;;;;11.70;10.40;;;7.00;99.90;;;;;;4954953;28;20180;-76
2021/12/15 06:27:09;;;;;;;11.00;10.00;;;7.10;99.90;;;;;;4950229;28;20444;-75
2021/12/15 06:29:36;;;;;;;12.50;10.97;;;7.00;99.90;;;;;;4944534;28;20834;-74
2021/12/15 06:32:02;;;;;;;11.57;10.47;;;7.00;99.90;;;;;;4943393;29;21015;-74
2021/12/15 06:34:28;;;;;;;13.67;10.30;;;7.00;99.90;;;;;;4944721;29;20539;-74
2021/12/15 06:36:56;;;;;;;12.47;11.20;;;7.00;99.90;;;;;;4954742;29;20515;-75
2021/12/15 06:39:21;;;;;;;13.60;11.53;;;6.90;99.90;;;;;;4945629;28;20197;-74
2021/12/15 06:41:47;;;;;;;13.83;12.27;;;7.00;99.90;;;;;;4936935;29;20475;-74
2021/12/15 06:44:14;;;;;;;15.60;12.23;;;7.00;99.90;;;;;;4948569;29;20663;-74
2021/12/15 06:58:10;;;;;;;15.23;11.53;;;7.10;99.90;;;;;;4954860;29;20874;-74
2021/12/15 07:00:14;;;;;;;13.70;12.30;;;7.10;99.90;;;;;;4947539;29;20447;-75
2021/12/15 07:02:41;;;;;;;14.70;11.63;;;7.00;99.90;;;;;;4948014;28;20557;-74
2021/12/15 07:05:12;;;;;;;15.40;12.63;;;6.90;99.90;;;;;;4947517;29;20942;-74
2021/12/15 07:07:40;;;;;;;15.60;12.30;;;6.90;99.90;;;;;;4947951;28;20869;-74
2021/12/15 07:10:07;;;;;;;18.03;13.53;;;6.90;99.90;;;;;;4954488;29;20480;-75
2021/12/15 07:12:33;;;;;;;16.70;13.10;;;6.90;99.90;;;;;;4951935;28;20542;-74
2021/12/15 07:14:58;;;;;;;13.07;11.17;;;6.80;99.90;;;;;;4954581;29;20846;-76
2021/12/15 07:17:25;;;;;;;11.47;9.57;;;6.80;99.90;;;;;;4933979;28;20188;-75
2021/12/15 07:22:43;;;;;;;13.27;11.73;;;6.80;99.90;;;;;;4951418;29;20586;-75
2021/12/15 07:25:10;;;;;;;14.73;12.83;;;6.80;99.90;;;;;;4940950;29;20584;-75
2021/12/15 07:27:36;;;;;;;18.80;13.90;;;6.70;99.90;;;;;;4947997;29;20468;-75
2021/12/15 07:30:04;;;;;;;22.00;16.40;;;6.70;99.90;;;;;;4953725;28;20475;-75
2021/12/15 07:32:30;;;;;;;19.67;15.77;;;6.70;99.90;;;;;;4957428;28;20963;-75
2021/12/15 07:34:56;;;;;;;21.00;16.33;;;6.70;99.90;;;;;;4950248;28;20451;-75
2021/12/15 07:37:21;;;;;;;17.70;15.50;;;6.70;99.90;;;;;;4955290;28;20191;-74
2021/12/15 07:40:00;;;;;;;21.03;15.27;;;6.70;99.90;;;;;;4953991;28;20343;-74
2021/12/15 07:42:42;;;;;;;17.67;15.37;;;6.80;99.90;;;;;;4952823;28;20272;-74
2021/12/15 07:45:09;;;;;;;18.20;14.67;;;6.80;99.90;;;;;;4951437;28;20440;-75
2021/12/15 07:47:35;;;;;;;17.67;15.77;;;6.70;99.90;;;;;;4935701;28;20540;-75
2021/12/15 07:50:02;;;;;;;14.70;11.90;;;6.70;99.90;;;;;;4950590;28;20576;-74
2021/12/15 07:52:29;;;;;;;15.77;13.00;;;6.60;99.90;;;;;;4957299;28;20195;-75
2021/12/15 07:54:55;;;;;;;16.50;13.23;;;6.50;99.90;;;;;;4941961;28;20540;-75
2021/12/15 07:57:22;;;;;;;18.40;16.50;;;6.60;99.90;;;;;;4933754;29;21014;-76
2021/12/15 07:59:49;;;;;;;17.70;14.13;;;6.60;99.90;;;;;;4937467;29;20208;-75
2021/12/15 08:02:14;;;;;;;17.03;13.00;;;6.60;99.90;;;;;;4944832;29;20436;-74
2021/12/15 08:04:40;;;;;;;16.03;13.93;;;6.50;99.90;;;;;;4948816;29;20436;-75
2021/12/15 08:07:06;;;;;;;16.20;12.07;;;6.50;99.90;;;;;;4931564;29;20216;-76
2021/12/15 08:09:32;;;;;;;12.33;11.03;;;6.60;99.90;;;;;;4949772;29;20504;-75
2021/12/15 08:11:57;;;;;;;13.43;10.80;;;6.60;99.90;;;;;;4934000;29;20197;-75
2021/12/15 08:14:23;;;;;;;13.50;11.07;;;6.60;99.90;;;;;;4951274;29;20436;-77
2021/12/15 08:16:48;;;;;;;15.30;11.70;;;6.60;99.90;;;;;;4942068;29;20211;-75
2021/12/15 08:19:16;;;;;;;16.40;12.20;;;6.50;99.90;;;;;;4934374;29;20193;-74
2021/12/15 08:21:43;;;;;;;13.90;11.83;;;6.60;99.90;;;;;;4946801;29;20199;-74
2021/12/15 08:24:08;;;;;;;13.53;11.93;;;6.60;99.90;;;;;;4944084;29;20935;-75
2021/12/15 08:26:34;;;;;;;13.70;11.07;;;6.60;99.90;;;;;;4939774;29;20436;-77
2021/12/15 08:29:00;;;;;;;18.13;13.33;;;6.50;99.90;;;;;;4942078;28;20178;-75
2021/12/15 08:31:26;;;;;;;16.30;12.93;;;6.50;99.90;;;;;;4942619;29;20275;-74
2021/12/15 08:33:51;;;;;;;18.63;13.53;;;6.60;99.90;;;;;;4942815;29;20572;-76
2021/12/15 08:36:17;;;;;;;19.00;13.57;;;6.60;99.90;;;;;;4950171;29;20639;-75
2021/12/15 08:38:45;;;;;;;12.23;9.60;;;6.50;99.90;;;;;;4951628;28;20654;-74
2021/12/15 08:41:16;;;;;;;14.40;10.50;;;6.50;99.90;;;;;;4959076;28;20672;-76
2021/12/15 08:43:41;;;;;;;16.53;11.40;;;6.40;99.90;;;;;;4959187;28;20890;-75
2021/12/15 08:46:15;;;;;;;14.07;11.43;;;6.50;99.90;;;;;;4949499;28;20515;-75
2021/12/15 08:48:42;;;;;;;13.03;10.30;;;6.50;99.90;;;;;;4935642;29;20643;-76
2021/12/15 08:51:10;;;;;;;13.60;10.40;;;6.50;99.90;;;;;;4943998;29;20471;-74
2021/12/15 08:53:37;;;;;;;11.53;9.50;;;6.40;99.90;;;;;;4937886;28;20477;-75
2021/12/15 08:56:04;;;;;;;14.87;10.77;;;6.30;99.90;;;;;;4932097;29;20520;-75
2021/12/15 08:58:29;;;;;;;12.60;9.60;;;6.30;99.90;;;;;;4946819;28;20535;-75
2021/12/15 09:00:57;;;;;;;12.23;9.93;;;6.30;99.90;;;;;;4942248;29;20535;-75
2021/12/15 09:03:24;;;;;;;12.00;9.67;;;6.40;99.90;;;;;;4941413;29;20208;-75
2021/12/15 09:05:52;;;;;;;12.63;9.83;;;6.50;99.90;;;;;;4935912;28;20433;-75
2021/12/15 09:08:20;;;;;;;16.00;12.07;;;6.50;99.90;;;;;;4940624;29;20493;-74
2021/12/15 09:10:47;;;;;;;11.10;9.70;;;6.50;99.90;;;;;;4935907;29;20540;-73
2021/12/15 09:13:14;;;;;;;10.30;7.97;;;6.60;99.90;;;;;;4943486;28;20464;-76
2021/12/15 09:15:41;;;;;;;10.53;8.90;;;6.50;99.90;;;;;;4944016;29;20436;-76
2021/12/15 09:18:07;;;;;;;11.33;9.50;;;6.40;99.90;;;;;;4939862;29;20942;-76
2021/12/15 09:20:35;;;;;;;8.83;7.30;;;6.40;99.90;;;;;;4933459;28;20463;-76
2021/12/15 09:23:03;;;;;;;16.20;8.10;;;6.60;99.90;;;;;;4935748;29;20476;-75
2021/12/15 09:25:29;;;;;;;10.60;7.43;;;6.60;99.90;;;;;;4939301;29;20440;-77
2021/12/15 09:27:58;;;;;;;8.17;7.37;;;6.50;99.90;;;;;;4943467;28;20934;-76
2021/12/15 09:30:26;;;;;;;9.10;7.50;;;6.60;99.90;;;;;;4946439;29;20452;-77
2021/12/15 09:32:52;;;;;;;8.40;6.53;;;6.60;99.90;;;;;;4939950;28;20504;-77
2021/12/15 09:35:21;;;;;;;8.67;7.07;;;6.60;99.90;;;;;;4933234;29;20496;-76
2021/12/15 09:37:47;;;;;;;7.73;6.80;;;6.60;99.90;;;;;;4939262;29;20965;-77
2021/12/15 09:40:15;;;;;;;6.60;5.70;;;6.70;99.90;;;;;;4942055;29;21021;-78
2021/12/15 09:42:41;;;;;;;7.70;6.60;;;6.80;99.90;;;;;;4942537;28;20448;-78
2021/12/15 09:45:28;;;;;;;9.17;7.03;;;6.80;99.90;;;;;;4936322;28;20441;-79
2021/12/15 10:04:21;;;;;;;7.70;6.23;;;6.90;99.90;;;;;;4933054;28;20428;-77
2021/12/15 10:12:31;;;;;;;13.33;10.53;;;6.50;99.90;;;;;;4976507;23;20647;-68
2021/12/15 10:18:10;;;;;;;8.40;6.60;;;6.70;99.90;;;;;;4949235;29;20503;-69
2021/12/15 10:20:37;;;;;;;9.10;8.00;;;6.70;99.90;;;;;;4952736;28;20506;-69
2021/12/15 10:23:11;;;;;;;9.70;7.03;;;6.80;99.90;;;;;;4953590;28;20855;-69
2021/12/15 10:25:43;;;;;;;10.50;7.33;;;6.80;99.90;;;;;;4952814;28;20432;-69
2021/12/15 10:28:16;;;;;;;10.37;7.13;;;6.90;99.90;;;;;;4948461;28;20463;-69
2021/12/15 10:30:44;;;;;;;8.47;7.47;;;6.80;99.90;;;;;;4952835;28;20547;-69
2021/12/15 10:33:13;;;;;;;9.83;7.40;;;6.90;99.90;;;;;;4943959;28;20621;-69
2021/12/15 10:35:45;;;;;;;10.37;7.90;;;6.90;99.90;;;;;;4933476;29;20453;-69
2021/12/15 10:38:16;;;;;;;9.07;7.70;;;6.80;99.90;;;;;;4931452;29;20447;-69
2021/12/15 10:41:00;;;;;;;8.60;7.70;;;6.80;99.90;;;;;;4933541;29;20504;-69
2021/12/15 10:43:37;;;;;;;10.23;7.97;;;6.80;99.90;;;;;;4933465;29;20966;-69
2021/12/15 10:46:14;;;;;;;10.50;8.33;;;6.70;99.90;;;;;;4933390;29;20428;-69
2021/12/15 10:49:27;;;;;;;10.13;8.10;;;6.80;99.90;;;;;;4938315;29;20435;-69
2021/12/15 10:52:01;;;;;;;8.87;7.70;;;6.80;99.90;;;;;;4951821;28;20452;-69
2021/12/15 10:54:29;;;;;;;10.17;7.30;;;6.70;99.90;;;;;;4952562;28;20540;-69
2021/12/15 10:56:59;;;;;;;10.60;8.20;;;6.70;99.90;;;;;;4950621;29;20425;-69
2021/12/15 10:59:28;;;;;;;9.70;8.70;;;6.70;99.90;;;;;;4936568;28;20414;-69
2021/12/15 11:02:04;;;;;;;8.57;7.67;;;6.60;99.90;;;;;;4933033;29;20441;-69
2021/12/15 11:04:43;;;;;;;9.83;7.53;;;6.60;99.90;;;;;;4934286;29;20425;-69
2021/12/15 11:07:11;;;;;;;8.50;7.40;;;6.60;99.90;;;;;;4934659;29;20417;-69
2021/12/15 11:09:42;;;;;;;10.27;8.00;;;6.60;99.90;;;;;;4954473;28;20839;-69
2021/12/15 11:12:20;;;;;;;8.10;7.07;;;6.60;99.90;;;;;;4954898;28;21000;-69
2021/12/15 11:14:49;;;;;;;9.40;7.90;;;6.70;99.90;;;;;;4955294;28;20444;-69
2021/12/15 11:17:40;;;;;;;9.50;7.60;;;6.60;99.90;;;;;;4949564;28;20936;-69
2021/12/15 11:20:17;;;;;;;9.60;7.17;;;6.50;99.90;;;;;;4934817;29;20429;-69
2021/12/15 11:22:50;;;;;;;10.50;8.10;;;6.40;99.90;;;;;;4935906;29;20429;-69
2021/12/15 11:25:18;;;;;;;8.87;7.53;;;6.30;99.90;;;;;;4935550;29;20453;-69
2021/12/15 11:27:49;;;;;;;10.17;8.10;;;6.30;99.90;;;;;;4933320;29;20485;-69
2021/12/15 11:30:21;;;;;;;14.00;8.50;;;6.20;99.90;;;;;;4935442;29;20463;-69
2021/12/15 11:32:51;;;;;;;13.43;8.10;;;6.20;99.90;;;;;;4935795;29;20467;-69
2021/12/15 11:35:19;;;;;;;15.97;9.20;;;6.20;99.90;;;;;;4935514;29;20425;-70
2021/12/15 11:37:52;;;;;;;9.77;8.27;;;6.20;99.90;;;;;;4932432;29;20440;-70
2021/12/15 11:40:53;;;;;;;9.10;7.30;;;6.40;99.90;;;;;;4935605;29;20800;-70
2021/12/15 11:43:34;;;;;;;9.90;7.77;;;6.50;99.90;;;;;;4934888;28;20446;-69
2021/12/15 11:46:02;;;;;;;9.40;7.60;;;6.30;99.90;;;;;;4935747;29;20520;-69
2021/12/15 11:48:32;;;;;;;14.27;11.00;;;6.40;99.90;;;;;;4942923;29;20424;-69
2021/12/15 11:51:02;;;;;;;9.80;8.50;;;6.40;99.90;;;;;;4954769;28;20441;-69
2021/12/15 11:53:37;;;;;;;11.13;8.37;;;6.40;99.90;;;;;;4953165;29;20460;-70
2021/12/15 11:56:13;;;;;;;12.80;9.53;;;6.30;99.90;;;;;;4954329;29;20408;-69
2021/12/15 11:58:39;;;;;;;11.70;8.77;;;6.30;99.90;;;;;;4937264;29;20485;-69
2021/12/15 12:01:04;;;;;;;11.07;8.43;;;6.50;99.90;;;;;;4935197;29;20950;-69
2021/12/15 12:03:30;;;;;;;11.27;9.57;;;6.70;99.90;;;;;;4935472;29;20177;-70
2021/12/15 12:05:56;;;;;;;9.90;8.63;;;6.70;99.90;;;;;;4935095;29;20268;-70
2021/12/15 12:08:22;;;;;;;9.93;7.63;;;6.60;99.90;;;;;;4933979;29;20273;-69
2021/12/15 12:10:51;;;;;;;12.40;9.83;;;6.70;99.90;;;;;;4934949;29;20544;-69
2021/12/15 12:13:25;;;;;;;11.93;8.80;;;6.70;99.90;;;;;;4934985;29;20675;-69
2021/12/15 12:15:57;;;;;;;10.67;8.00;;;6.50;99.90;;;;;;4934812;29;20429;-70
2021/12/15 12:18:27;;;;;;;10.17;7.97;;;6.40;99.90;;;;;;4942530;29;20525;-69
2021/12/15 12:21:02;;;;;;;8.70;7.70;;;6.30;99.90;;;;;;4952763;28;20440;-70
2021/12/15 12:23:30;;;;;;;9.50;8.50;;;6.30;99.90;;;;;;4954053;29;20515;-70
2021/12/15 12:26:01;;;;;;;9.73;8.73;;;6.40;99.90;;;;;;4953110;28;20445;-70
2021/12/15 12:28:30;;;;;;;10.90;8.73;;;6.50;99.90;;;;;;4938229;28;20429;-69
2021/12/15 12:31:08;;;;;;;10.10;8.77;;;6.50;99.90;;;;;;4934705;29;20441;-69
2021/12/15 12:33:34;;;;;;;11.50;9.17;;;6.50;99.90;;;;;;4934801;29;20471;-69
2021/12/15 12:36:15;;;;;;;13.67;10.33;;;6.60;99.90;;;;;;4934404;29;20421;-69
2021/12/15 12:38:51;;;;;;;12.17;10.87;;;6.60;99.90;;;;;;4945125;29;20429;-69
2021/12/15 12:41:23;;;;;;;11.20;9.47;;;6.70;99.90;;;;;;4953734;28;20467;-69
2021/12/15 12:43:51;;;;;;;10.20;9.10;;;6.70;99.90;;;;;;4953743;29;20428;-69
2021/12/15 12:46:22;;;;;;;12.77;11.30;;;6.70;99.90;;;;;;4953548;28;20464;-69
2021/12/15 12:49:19;;;;;;;12.87;10.33;;;6.80;99.90;;;;;;4936694;28;20425;-69
2021/12/15 13:00:21;;;;;;;12.47;10.17;;;6.80;99.90;;;;;;4933934;29;20432;-69
2021/12/15 13:02:50;;;;;;;11.73;10.53;;;6.80;99.90;;;;;;4934526;29;20488;-69
2021/12/15 13:05:35;;;;;;;12.80;10.33;;;6.90;99.90;;;;;;4934085;29;20414;-69
2021/12/15 13:08:07;;;;;;;12.27;10.97;;;6.90;99.90;;;;;;4938756;29;20764;-69
2021/12/15 13:10:48;;;;;;;12.90;11.57;;;6.90;99.90;;;;;;4952662;28;20912;-69
2021/12/15 13:13:16;;;;;;;10.67;9.23;;;7.00;99.90;;;;;;4953354;29;20456;-69
2021/12/15 13:15:44;;;;;;;11.27;10.17;;;6.80;99.90;;;;;;4952960;28;20815;-70
2021/12/15 13:18:13;;;;;;;12.40;10.70;;;6.70;99.90;;;;;;4937663;28;20425;-70
2021/12/15 13:20:40;;;;;;;12.03;10.77;;;6.60;99.90;;;;;;4933804;29;20497;-70
2021/12/15 13:28:47;;;;;;;11.70;10.60;;;6.40;99.90;;;;;;4943426;29;20491;-69
2021/12/15 13:31:20;;;;;;;13.07;10.60;;;6.60;99.90;;;;;;4953394;28;20880;-69
2021/12/15 13:33:53;;;;;;;12.77;10.83;;;6.60;99.90;;;;;;4931316;28;20505;-68
2021/12/15 13:36:30;;;;;;;12.23;11.13;;;6.80;99.90;;;;;;4927526;29;20425;-69
2021/12/15 13:39:02;;;;;;;11.20;10.00;;;6.80;99.90;;;;;;4938777;29;20416;-69
2021/12/15 13:42:08;;;;;;;11.90;9.83;;;6.90;99.90;;;;;;4956786;28;20783;-69
2021/12/15 13:44:47;;;;;;;10.10;9.10;;;6.80;99.90;;;;;;4956988;28;20416;-69
2021/12/15 13:47:22;;;;;;;11.70;9.93;;;6.70;99.90;;;;;;4951999;29;20460;-69
2021/12/15 13:49:59;;;;;;;10.93;9.87;;;6.70;99.90;;;;;;4937178;29;20423;-69
2021/12/15 13:52:43;;;;;;;10.70;9.67;;;6.70;99.90;;;;;;4935291;29;21066;-69
2021/12/15 13:55:28;;;;;;;11.00;9.90;;;6.60;99.90;;;;;;4929447;29;20442;-68
2021/12/15 13:57:58;;;;;;;10.43;9.33;;;6.50;99.90;;;;;;4932497;29;20540;-69
2021/12/15 14:00:54;;;;;;;11.87;10.40;;;6.60;99.90;;;;;;4933116;29;20993;-68
2021/12/15 14:03:39;;;;;;;10.87;9.73;;;6.70;99.90;;;;;;4915287;29;20460;-68
2021/12/15 14:06:05;;;;;;;11.50;9.73;;;6.70;99.90;;;;;;4928688;29;20452;-70
2021/12/15 14:08:33;;;;;;;11.17;10.07;;;6.70;99.90;;;;;;4930982;29;20813;-69
2021/12/15 14:11:20;;;;;;;11.00;9.90;;;6.70;99.90;;;;;;4952975;28;20216;-69
2021/12/15 14:13:47;;;;;;;10.53;8.40;;;6.70;99.90;;;;;;4953144;28;20460;-69
2021/12/15 14:16:28;;;;;;;10.97;9.87;;;6.50;99.90;;;;;;4952547;29;20504;-69
2021/12/15 14:18:55;;;;;;;10.47;8.43;;;6.50;99.90;;;;;;4933419;29;20421;-69
2021/12/15 14:21:21;;;;;;;10.10;9.10;;;6.40;99.90;;;;;;4933761;29;20823;-70